Jaipur / Sanganer, India

10:10 PM IST on March 24, 2017 (GMT +0530)
Jaipur | | Change Station

Elev 1263 ft 26.82 °N, 75.80 °E | Updated 40 minutes ago

Haze
Haze
88 °F
Feels Like 88 °F
N
4
Wind Variable Wind from NNE

Today
High -- | Low -- °F
--% Chance of Precip.
Yesterday
High -- | Low -- °F
Precip. -- in
Pressure 29.92 in
Visibility 1.9 miles
Clouds
Dew Point 43 °F
Humidity 21%
Rainfall 0.00 in
Snow Depth Not available.
6:26 AM 6:39 PM
Waning Crescent, 14% visible
METAR VIJP 241600Z 03003KT 3000 HZ NSC 31/06 Q1013 NOSIG
Pressure 29.92 in
Visibility 1.9 miles
Clouds
Dew Point 43 °F
Humidity 21%
Rainfall 0.00 in
Snow Depth Not available.
6:26 AM 6:39 PM
Waning Crescent, 14% visible
METAR VIJP 241600Z 03003KT 3000 HZ NSC 31/06 Q1013 NOSIG

Get Severe Weather Alerts

Thanks for signing up!

Be on the lookout for a verification email in your inbox.

You'll start receiving the daily forecast at 8 AM.

×

10-Day Weather Forecast

No radar image for this location.
×

Almanac

Astronomy

Mar. 24, 2017 Rise Set
Actual Time
Civil Twilight
Nautical Twilight
Astronomical Twilight
Moon
Length of Visible Light
Length of Day
Tomorrow will be .
, % of the Moon is Illuminated

Today's Extremes

Country Highs Country Lows

Community

WunderPhotos

Upload Photos

1,962,540 photos uploaded!

WunderBlog® & News

Nearby

Air Quality

  Air Quality AQ Index Pollutant
Not available.

Snow Depth

Station Depth Elevation

Earthquake Activity

City Distance Mag. Time & Date
Minimum magnitude displayed is 2.5.

Earthquake Activity

City Distance Mag. Time & Date
Minimum magnitude displayed is 2.5.

Coastal Water Temperatures

Place Temperature

Stations

Nearby Weather Stations

Station Location Temp. Windchill Dew Point Humidity Wind Precip. Elev Updated Type